createdAt,value
2023-07-17T05:40:45.960Z,99.90
2023-07-17T05:45:49.347Z,99.90
2023-07-17T05:50:53.021Z,99.90
2023-07-17T05:55:57.922Z,99.90
2023-07-17T06:01:01.456Z,99.90
2023-07-17T06:06:08.213Z,99.90
2023-07-17T06:11:14.829Z,99.90
2023-07-17T06:16:19.663Z,99.90
2023-07-17T06:21:24.156Z,99.90
2023-07-17T06:26:28.864Z,99.90
2023-07-17T06:31:32.369Z,99.70
2023-07-17T06:36:35.772Z,97.60
2023-07-17T06:41:40.523Z,99.10
2023-07-17T06:46:44.926Z,97.30
2023-07-17T06:51:49.963Z,93.00
2023-07-17T06:56:54.889Z,90.30
2023-07-17T07:01:59.084Z,88.40
2023-07-17T07:07:02.713Z,84.90
2023-07-17T07:12:13.979Z,79.80
2023-07-17T07:17:18.356Z,78.30
2023-07-17T07:22:23.092Z,75.20
2023-07-17T07:27:32.438Z,74.80
2023-07-17T07:32:38.178Z,76.20
2023-07-17T07:37:42.508Z,75.50
2023-07-17T07:42:47.688Z,72.80
2023-07-17T07:47:51.155Z,71.50
2023-07-17T07:52:56.546Z,71.50
2023-07-17T07:58:01.409Z,70.00
2023-07-17T08:03:06.708Z,72.90
2023-07-17T08:08:10.203Z,70.60
2023-07-17T08:13:15.082Z,72.80
2023-07-17T08:18:30.894Z,69.40
2023-07-17T08:23:34.258Z,71.90
2023-07-17T08:28:39.149Z,72.40
2023-07-17T08:33:42.552Z,72.40
2023-07-17T08:38:45.972Z,73.70
2023-07-17T08:43:51.461Z,76.00
2023-07-17T08:48:56.600Z,72.70
2023-07-17T08:54:13.485Z,73.50
2023-07-17T08:59:26.267Z,72.80
2023-07-17T09:04:33.133Z,71.10
2023-07-17T09:09:36.701Z,75.00
2023-07-17T09:14:42.023Z,75.20
2023-07-17T09:19:49.192Z,75.70
2023-07-17T09:24:58.159Z,79.40
2023-07-17T09:30:10.839Z,75.50
2023-07-17T09:35:15.166Z,74.20
2023-07-17T09:40:19.988Z,75.70
2023-07-17T09:45:26.197Z,71.80
2023-07-17T09:50:37.521Z,74.80
2023-07-17T09:55:42.936Z,70.10
2023-07-17T10:00:51.269Z,73.40
2023-07-17T10:05:59.763Z,74.40
2023-07-17T10:11:06.885Z,74.10
2023-07-17T10:16:23.765Z,72.20
2023-07-17T10:21:28.996Z,76.00
2023-07-17T10:26:33.453Z,80.20
2023-07-17T10:31:50.633Z,79.20
2023-07-17T10:36:54.141Z,81.50
2023-07-17T10:41:57.625Z,79.90
2023-07-17T10:47:02.424Z,84.40
2023-07-17T10:52:08.200Z,80.50
2023-07-17T10:57:12.085Z,83.40
2023-07-17T11:02:18.052Z,86.80
2023-07-17T11:07:22.497Z,80.60
2023-07-17T11:12:27.790Z,84.70
2023-07-17T11:17:34.408Z,85.10
2023-07-17T11:22:42.094Z,82.40
2023-07-17T11:27:48.107Z,83.60
2023-07-17T11:33:10.727Z,85.10
2023-07-17T11:38:16.566Z,86.60
2023-07-17T11:43:32.133Z,83.80
2023-07-17T11:48:40.462Z,86.60
2023-07-17T11:53:54.973Z,86.80
2023-07-17T11:58:58.349Z,84.10
2023-07-17T12:04:21.658Z,85.90
2023-07-17T12:09:25.738Z,84.20
2023-07-17T12:14:30.301Z,87.80
2023-07-17T12:19:35.175Z,87.00
2023-07-17T12:24:39.581Z,88.30
2023-07-17T12:29:43.021Z,88.60
2023-07-17T12:34:50.659Z,89.80
2023-07-17T12:39:55.476Z,91.30
2023-07-17T12:45:01.006Z,87.30
2023-07-17T12:50:06.777Z,88.70
2023-07-17T12:55:11.123Z,91.90
2023-07-17T13:00:15.498Z,89.50
2023-07-17T13:05:21.460Z,88.40
2023-07-17T13:10:25.163Z,87.00
2023-07-17T13:15:32.021Z,88.50
2023-07-17T13:20:37.008Z,89.80
2023-07-17T13:25:43.542Z,87.50
2023-07-17T13:31:03.535Z,88.60
2023-07-17T13:36:12.859Z,89.10
2023-07-17T13:42:00.672Z,90.60
2023-07-17T13:47:17.209Z,91.40
2023-07-17T13:52:25.836Z,88.30
2023-07-17T13:57:30.265Z,90.80
2023-07-17T14:02:40.698Z,90.20
2023-07-17T14:07:47.868Z,91.70
2023-07-17T14:12:56.389Z,90.20
2023-07-17T14:18:01.624Z,93.60
2023-07-17T14:23:27.281Z,92.70
2023-07-17T14:28:42.741Z,92.80
2023-07-17T14:34:30.226Z,91.30
2023-07-17T14:39:52.492Z,91.00
2023-07-17T14:44:57.751Z,91.20
2023-07-17T14:50:08.388Z,91.50
2023-07-17T14:55:13.213Z,91.30
2023-07-17T15:00:17.618Z,92.20
2023-07-17T15:05:21.682Z,92.10
2023-07-17T15:10:27.651Z,92.50
2023-07-17T15:15:33.426Z,91.40
2023-07-17T15:20:37.050Z,91.70
2023-07-17T15:25:43.990Z,91.50
2023-07-17T15:30:49.584Z,92.20
2023-07-17T15:35:53.039Z,92.20
2023-07-17T15:40:59.264Z,92.10
2023-07-17T15:46:04.832Z,91.70
2023-07-17T15:51:08.397Z,91.80
2023-07-17T15:56:15.527Z,90.90
2023-07-17T16:01:20.334Z,91.60
2023-07-17T16:06:30.713Z,92.50
2023-07-17T16:12:01.348Z,92.00
2023-07-17T16:17:10.651Z,92.20
2023-07-17T16:22:16.179Z,92.10
2023-07-17T16:27:22.015Z,92.30
2023-07-17T16:32:25.668Z,92.60
2023-07-17T16:37:29.059Z,92.80
2023-07-17T16:42:33.940Z,93.50
2023-07-17T16:47:37.412Z,93.70
2023-07-17T16:52:40.906Z,93.90
2023-07-17T16:57:45.789Z,94.20
2023-07-17T17:02:50.295Z,94.20
2023-07-17T17:07:53.911Z,94.30
2023-07-17T17:12:58.901Z,93.70
2023-07-17T17:18:05.859Z,94.60
2023-07-17T17:23:11.525Z,94.90
2023-07-17T17:28:17.353Z,94.60
2023-07-17T17:33:22.954Z,94.70
2023-07-17T17:38:26.632Z,94.80
2023-07-17T17:43:31.475Z,94.40
2023-07-17T17:48:35.055Z,94.90
2023-07-17T17:53:38.560Z,95.00
2023-07-17T17:58:43.448Z,95.90
2023-07-17T18:03:53.793Z,95.40
2023-07-17T18:08:57.564Z,95.30
2023-07-17T18:14:09.332Z,95.50
2023-07-17T18:19:14.870Z,95.30
2023-07-17T18:24:18.296Z,95.40
2023-07-17T18:29:23.088Z,95.40
2023-07-17T18:34:27.669Z,95.40
2023-07-17T18:39:31.160Z,96.40
2023-07-17T18:44:37.262Z,96.50
2023-07-17T18:49:42.655Z,96.90
2023-07-17T18:54:46.379Z,98.00
2023-07-17T18:59:51.245Z,98.30
2023-07-17T19:04:55.676Z,98.90
2023-07-17T19:10:01.149Z,99.90
2023-07-17T19:15:08.330Z,99.90
2023-07-17T19:20:14.532Z,99.90
2023-07-17T19:25:18.048Z,99.90
2023-07-17T19:30:24.495Z,99.90
2023-07-17T19:35:28.869Z,99.90
